createdAt,value
2017-12-24T00:01:47.670Z,81.75
2017-12-24T00:04:15.948Z,81.43
2017-12-24T00:06:44.958Z,81.30
2017-12-24T00:09:13.208Z,81.58
2017-12-24T00:11:41.467Z,81.16
2017-12-24T00:14:09.707Z,80.92
2017-12-24T00:16:38.752Z,81.54
2017-12-24T00:19:07.009Z,81.16
2017-12-24T00:21:35.289Z,81.48
2017-12-24T00:24:04.380Z,81.88
2017-12-24T00:26:33.455Z,81.65
2017-12-24T00:29:01.742Z,81.36
2017-12-24T00:31:30.062Z,81.66
2017-12-24T00:33:58.310Z,81.75
2017-12-24T00:36:26.557Z,81.50
2017-12-24T00:38:55.642Z,81.82
2017-12-24T00:41:23.892Z,80.98
2017-12-24T00:43:52.143Z,81.12
2017-12-24T00:46:21.160Z,80.94
2017-12-24T00:48:50.223Z,80.81
2017-12-24T00:51:18.615Z,81.17
2017-12-24T00:53:46.858Z,80.65
2017-12-24T00:56:15.100Z,80.55
2017-12-24T00:58:43.352Z,81.12
2017-12-24T01:01:11.603Z,81.15
2017-12-24T01:03:40.631Z,81.01
2017-12-24T01:06:08.863Z,81.17
2017-12-24T01:08:37.119Z,81.48
2017-12-24T01:11:05.423Z,81.45
2017-12-24T01:13:33.775Z,81.28
2017-12-24T01:16:02.077Z,81.09
2017-12-24T01:18:30.472Z,80.74
2017-12-24T01:20:58.727Z,80.34
2017-12-24T01:23:27.743Z,80.66
2017-12-24T01:25:56.742Z,80.70
2017-12-24T01:28:25.772Z,80.57
2017-12-24T01:30:54.011Z,80.69
2017-12-24T01:33:22.248Z,80.98
2017-12-24T01:35:50.498Z,81.01
2017-12-24T01:38:18.764Z,81.17
2017-12-24T01:40:47.014Z,80.80
2017-12-24T01:43:15.283Z,80.73
2017-12-24T01:45:43.562Z,80.76
2017-12-24T01:48:11.799Z,80.85
2017-12-24T01:50:40.067Z,81.59
2017-12-24T01:53:09.066Z,80.68
2017-12-24T01:55:38.101Z,80.83
2017-12-24T01:58:06.351Z,80.88
2017-12-24T02:00:34.603Z,80.90
2017-12-24T02:03:03.055Z,80.80
2017-12-24T02:05:31.404Z,80.93
2017-12-24T02:07:59.650Z,80.33
2017-12-24T02:10:28.010Z,80.95
2017-12-24T02:12:57.017Z,80.73
2017-12-24T02:15:26.030Z,80.48
2017-12-24T02:17:55.027Z,81.06
2017-12-24T02:20:24.047Z,81.21
2017-12-24T02:22:53.056Z,80.96
2017-12-24T02:25:21.326Z,80.99
2017-12-24T02:27:50.392Z,81.35
2017-12-24T02:30:18.707Z,81.10
2017-12-24T02:32:46.948Z,81.40
2017-12-24T02:35:15.198Z,81.71
2017-12-24T02:37:44.194Z,81.36
2017-12-24T02:40:12.457Z,81.63
2017-12-24T02:42:40.702Z,81.43
2017-12-24T02:45:08.953Z,81.46
2017-12-24T02:47:37.195Z,81.24
2017-12-24T02:50:05.552Z,81.00
2017-12-24T02:52:34.588Z,81.00
2017-12-24T02:55:02.905Z,81.09
2017-12-24T02:57:31.211Z,81.18
2017-12-24T02:59:59.524Z,81.47
2017-12-24T03:02:27.775Z,81.89
2017-12-24T03:04:56.009Z,81.75
2017-12-24T03:07:25.040Z,81.27
2017-12-24T03:09:53.274Z,81.01
2017-12-24T03:12:21.528Z,81.62
2017-12-24T03:14:49.832Z,80.75
2017-12-24T03:17:18.115Z,81.17
2017-12-24T03:19:46.352Z,81.70
2017-12-24T03:22:15.393Z,81.84
2017-12-24T03:24:43.625Z,81.77
2017-12-24T03:27:11.874Z,81.96
2017-12-24T03:29:40.119Z,82.16
2017-12-24T03:32:08.370Z,81.84
2017-12-24T03:34:36.617Z,82.11
2017-12-24T03:37:05.639Z,81.85
2017-12-24T03:39:33.934Z,82.39
2017-12-24T03:42:02.429Z,81.77
2017-12-24T03:44:30.739Z,81.81
2017-12-24T03:46:58.998Z,82.08
2017-12-24T03:49:27.238Z,82.34
2017-12-24T03:51:55.495Z,82.30
2017-12-24T03:54:23.727Z,82.29
2017-12-24T03:56:51.979Z,82.25
2017-12-24T03:59:20.245Z,82.60
2017-12-24T04:01:48.601Z,82.45
2017-12-24T04:04:16.843Z,82.44
2017-12-24T04:06:45.086Z,82.43
2017-12-24T04:09:14.098Z,82.28
2017-12-24T04:11:43.118Z,82.55
2017-12-24T04:14:11.347Z,82.70
2017-12-24T04:16:39.598Z,82.13
2017-12-24T04:19:07.836Z,82.50
2017-12-24T04:21:36.094Z,82.56
2017-12-24T04:24:04.420Z,82.83
2017-12-24T04:26:32.883Z,82.21
2017-12-24T04:29:01.190Z,82.42
2017-12-24T04:31:29.441Z,82.81
2017-12-24T04:33:57.745Z,81.83
2017-12-24T04:36:25.976Z,82.03
2017-12-24T04:38:54.227Z,81.83
2017-12-24T04:41:22.470Z,81.55
2017-12-24T04:43:51.490Z,82.17
2017-12-24T04:46:19.738Z,81.82
2017-12-24T04:48:48.004Z,82.10
2017-12-24T04:51:16.253Z,81.97
2017-12-24T04:53:44.511Z,81.60
2017-12-24T04:56:12.749Z,81.61
2017-12-24T04:58:41.004Z,82.08
2017-12-24T05:01:10.003Z,82.69
2017-12-24T05:03:39.031Z,82.14
2017-12-24T05:06:08.040Z,82.71
2017-12-24T05:08:36.332Z,82.90
2017-12-24T05:11:05.358Z,82.91
2017-12-24T05:13:33.652Z,82.79
2017-12-24T05:16:02.049Z,82.62
2017-12-24T05:18:30.430Z,82.64
2017-12-24T05:20:58.671Z,82.93
2017-12-24T05:23:27.695Z,82.79
2017-12-24T05:25:56.698Z,82.59
2017-12-24T05:28:25.723Z,82.72
2017-12-24T05:30:54.008Z,82.27
2017-12-24T05:33:22.250Z,82.89
2017-12-24T05:35:50.535Z,82.98
2017-12-24T05:38:18.810Z,83.37
2017-12-24T05:40:47.054Z,83.23
2017-12-24T05:43:16.074Z,82.72
2017-12-24T05:45:44.324Z,82.61
2017-12-24T05:48:12.572Z,82.94
2017-12-24T05:50:40.812Z,83.79
2017-12-24T05:53:09.059Z,84.39
2017-12-24T05:55:37.291Z,83.58
2017-12-24T05:58:05.590Z,83.54
2017-12-24T06:00:33.886Z,83.37
2017-12-24T06:03:02.197Z,83.84
2017-12-24T06:05:30.533Z,83.74
2017-12-24T06:07:59.609Z,83.94
2017-12-24T06:10:27.846Z,83.62
2017-12-24T06:12:56.879Z,83.76
2017-12-24T06:15:25.122Z,84.08
2017-12-24T06:17:53.354Z,83.87
2017-12-24T06:20:21.603Z,84.00
2017-12-24T06:22:49.891Z,84.16
2017-12-24T06:25:18.161Z,84.18
2017-12-24T06:27:46.394Z,83.67
2017-12-24T06:30:15.445Z,84.11
2017-12-24T06:32:43.683Z,84.12
2017-12-24T06:35:12.721Z,84.45
2017-12-24T06:37:40.970Z,84.25
2017-12-24T06:40:09.242Z,84.35
2017-12-24T06:42:37.515Z,84.14
2017-12-24T06:45:05.842Z,83.74
2017-12-24T06:47:34.170Z,84.10
2017-12-24T06:50:02.545Z,83.37
2017-12-24T06:52:30.862Z,83.02
2017-12-24T06:54:59.920Z,82.86
2017-12-24T06:57:28.227Z,82.54
2017-12-24T06:59:57.247Z,82.65
2017-12-24T07:02:25.529Z,82.30
2017-12-24T07:04:54.555Z,82.26
2017-12-24T07:07:22.792Z,82.33
2017-12-24T07:09:51.060Z,81.85
2017-12-24T07:12:19.372Z,82.04
2017-12-24T07:14:47.689Z,82.37
2017-12-24T07:17:15.950Z,81.74
2017-12-24T07:19:44.203Z,82.19
2017-12-24T07:22:12.435Z,82.17
2017-12-24T07:24:41.463Z,81.86
2017-12-24T07:27:09.756Z,81.93
2017-12-24T07:29:38.046Z,82.07
2017-12-24T07:32:07.064Z,82.44
2017-12-24T07:34:35.348Z,82.66
2017-12-24T07:37:03.648Z,82.13
2017-12-24T07:39:31.975Z,82.77
2017-12-24T07:42:00.325Z,81.35
2017-12-24T07:44:28.598Z,81.77
2017-12-24T07:46:56.862Z,82.01
2017-12-24T07:49:25.875Z,81.69
2017-12-24T07:51:54.903Z,82.21
2017-12-24T07:54:23.151Z,81.77
2017-12-24T07:56:51.404Z,81.77
2017-12-24T07:59:19.655Z,81.82
2017-12-24T08:01:48.686Z,81.57
2017-12-24T08:04:16.928Z,81.28
2017-12-24T08:06:45.178Z,81.22
2017-12-24T08:09:13.427Z,81.01
2017-12-24T08:11:42.455Z,80.06
2017-12-24T08:14:10.698Z,80.36
2017-12-24T08:16:38.950Z,79.48
2017-12-24T08:19:07.189Z,79.31
2017-12-24T08:21:36.317Z,78.94
2017-12-24T08:24:04.648Z,79.54
2017-12-24T08:26:32.992Z,78.80
2017-12-24T08:29:01.331Z,78.36
2017-12-24T08:31:30.448Z,77.73
2017-12-24T08:33:58.695Z,78.16
2017-12-24T08:36:26.972Z,77.46
2017-12-24T08:38:55.239Z,77.07
2017-12-24T08:41:23.501Z,77.41
2017-12-24T08:43:51.828Z,76.77
2017-12-24T08:46:20.917Z,76.51
2017-12-24T08:48:49.162Z,77.33
2017-12-24T08:51:17.475Z,77.28
2017-12-24T08:53:45.745Z,76.86
2017-12-24T08:56:13.987Z,77.12
2017-12-24T08:58:43.011Z,76.89
2017-12-24T09:01:12.024Z,76.24
2017-12-24T09:03:40.290Z,74.67
2017-12-24T09:06:09.290Z,75.74
2017-12-24T09:08:37.560Z,76.18
2017-12-24T09:11:05.828Z,76.20
2017-12-24T09:13:34.143Z,75.43
2017-12-24T09:16:02.411Z,76.00
2017-12-24T09:18:30.889Z,74.88
2017-12-24T09:20:59.147Z,75.55
2017-12-24T09:23:28.172Z,75.78
2017-12-24T09:25:56.416Z,75.25
2017-12-24T09:28:24.692Z,74.25
2017-12-24T09:30:52.934Z,75.56
2017-12-24T09:33:21.198Z,75.44
2017-12-24T09:35:49.434Z,74.81
2017-12-24T09:38:17.697Z,74.93
2017-12-24T09:40:45.938Z,74.51
2017-12-24T09:43:15.694Z,74.14
2017-12-24T09:45:44.696Z,74.15
2017-12-24T09:48:13.723Z,74.55
2017-12-24T09:50:41.964Z,73.94
2017-12-24T09:53:10.223Z,72.98
2017-12-24T09:55:38.538Z,72.73
2017-12-24T09:58:06.864Z,73.46
2017-12-24T10:00:35.883Z,73.28
2017-12-24T10:03:04.946Z,70.88
2017-12-24T10:05:33.228Z,71.74
2017-12-24T10:08:01.523Z,72.10
2017-12-24T10:10:35.212Z,71.97
2017-12-24T10:13:03.570Z,72.06
2017-12-24T10:15:32.081Z,71.09
2017-12-24T10:18:00.489Z,71.38
2017-12-24T10:20:28.726Z,71.41
2017-12-24T10:22:56.991Z,71.59
2017-12-24T10:25:25.228Z,71.61
2017-12-24T10:27:53.522Z,71.26
2017-12-24T10:30:21.776Z,70.73
2017-12-24T10:32:50.016Z,70.68
2017-12-24T10:35:18.337Z,69.08
2017-12-24T10:37:46.571Z,70.30
2017-12-24T10:40:14.864Z,71.39
2017-12-24T10:42:43.863Z,71.18
2017-12-24T10:45:12.939Z,70.80
2017-12-24T10:47:41.127Z,70.79
2017-12-24T10:50:10.179Z,70.95
2017-12-24T10:52:39.777Z,70.85
2017-12-24T10:55:08.796Z,70.04
2017-12-24T10:57:37.812Z,70.28
2017-12-24T11:00:06.066Z,69.19
2017-12-24T11:02:34.336Z,69.69
2017-12-24T11:05:02.701Z,69.77
2017-12-24T11:07:31.755Z,79.05
2017-12-24T11:10:00.924Z,67.55
2017-12-24T11:12:29.119Z,67.98
2017-12-24T11:14:57.450Z,68.39
2017-12-24T11:17:25.639Z,68.47
2017-12-24T11:19:53.955Z,68.11
2017-12-24T11:22:22.159Z,69.73
2017-12-24T11:24:50.463Z,68.87
2017-12-24T11:27:18.713Z,69.12
2017-12-24T11:29:47.744Z,68.10
2017-12-24T11:32:16.028Z,68.21
2017-12-24T11:34:44.309Z,69.56
2017-12-24T11:37:12.562Z,69.15
2017-12-24T11:39:40.819Z,69.43
2017-12-24T11:42:09.070Z,68.44
2017-12-24T11:44:37.332Z,73.11
2017-12-24T11:47:07.169Z,70.70
2017-12-24T11:49:36.229Z,68.47
2017-12-24T11:52:04.491Z,75.60
2017-12-24T11:54:33.610Z,70.09
2017-12-24T11:57:01.914Z,68.37
2017-12-24T11:59:30.190Z,68.26
2017-12-24T12:01:58.530Z,68.26
2017-12-24T12:04:27.539Z,69.27
2017-12-24T12:06:56.578Z,69.49
2017-12-24T12:09:24.821Z,69.37
2017-12-24T12:11:53.077Z,68.01
2017-12-24T12:14:21.372Z,68.10
2017-12-24T12:16:49.706Z,68.95
2017-12-24T12:19:18.761Z,68.40
2017-12-24T12:21:47.010Z,68.39
2017-12-24T12:24:16.019Z,70.68
2017-12-24T12:26:45.056Z,68.01
2017-12-24T12:29:13.303Z,68.65
2017-12-24T12:31:42.340Z,69.01
2017-12-24T12:34:10.587Z,67.77
2017-12-24T12:36:38.839Z,68.09
2017-12-24T12:39:07.078Z,69.50
2017-12-24T12:41:35.411Z,68.24
2017-12-24T12:44:03.779Z,67.80
2017-12-24T12:46:35.933Z,69.18
2017-12-24T12:49:04.976Z,69.71
2017-12-24T12:51:33.345Z,69.30
2017-12-24T12:54:01.731Z,68.54
2017-12-24T12:56:30.123Z,69.17
2017-12-24T12:58:58.415Z,68.83
2017-12-24T13:01:27.434Z,69.83
2017-12-24T13:03:55.684Z,69.13
2017-12-24T13:06:23.929Z,69.15
2017-12-24T13:08:52.163Z,69.35
2017-12-24T13:11:20.462Z,69.28
2017-12-24T13:13:49.475Z,69.74
2017-12-24T13:16:17.734Z,70.42
2017-12-24T13:18:45.988Z,70.22
2017-12-24T13:21:14.263Z,69.63
2017-12-24T13:23:42.514Z,69.94
2017-12-24T13:26:10.761Z,69.75
2017-12-24T13:28:39.006Z,69.10
2017-12-24T13:31:08.039Z,70.13
2017-12-24T13:33:36.275Z,70.94
2017-12-24T13:36:04.822Z,70.45
2017-12-24T13:38:33.253Z,70.20
2017-12-24T13:41:02.362Z,69.83
2017-12-24T13:43:30.681Z,70.08
2017-12-24T13:46:00.712Z,70.26
2017-12-24T13:48:29.756Z,69.80
2017-12-24T13:50:58.003Z,70.82
2017-12-24T13:53:26.298Z,70.32
2017-12-24T13:55:55.305Z,71.79
2017-12-24T13:58:24.318Z,71.19
2017-12-24T14:00:53.330Z,72.18
2017-12-24T14:03:22.347Z,70.57
2017-12-24T14:05:51.351Z,70.94
2017-12-24T14:08:19.666Z,70.31
2017-12-24T14:10:47.915Z,71.54
2017-12-24T14:13:17.310Z,72.88
2017-12-24T14:15:45.550Z,71.81
2017-12-24T14:18:13.806Z,72.41
2017-12-24T14:20:42.815Z,72.49
2017-12-24T14:23:11.856Z,71.53
2017-12-24T14:25:40.094Z,72.42
2017-12-24T14:28:08.363Z,71.90
2017-12-24T14:30:36.615Z,72.72
2017-12-24T14:33:05.838Z,72.74
2017-12-24T14:35:34.114Z,72.97
2017-12-24T14:38:02.561Z,72.67
2017-12-24T14:40:30.915Z,72.57
2017-12-24T14:42:59.187Z,73.18
2017-12-24T14:45:27.423Z,73.43
2017-12-24T14:47:55.671Z,72.39
2017-12-24T14:50:23.927Z,72.88
2017-12-24T14:52:52.938Z,72.57
2017-12-24T14:55:21.934Z,73.12
2017-12-24T14:57:50.991Z,73.31
2017-12-24T15:00:19.268Z,73.78
2017-12-24T15:02:47.515Z,74.25
2017-12-24T15:05:16.540Z,74.20
2017-12-24T15:07:44.791Z,73.44
2017-12-24T15:10:13.058Z,75.01
2017-12-24T15:12:41.295Z,74.01
2017-12-24T15:15:10.329Z,73.90
2017-12-24T15:17:38.590Z,73.93
2017-12-24T15:20:07.615Z,74.27
2017-12-24T15:22:35.858Z,74.47
2017-12-24T15:25:04.129Z,74.88
2017-12-24T15:27:32.401Z,74.72
2017-12-24T15:30:00.759Z,75.09
2017-12-24T15:32:29.015Z,74.75
2017-12-24T15:34:57.279Z,74.78
2017-12-24T15:37:25.898Z,75.14
2017-12-24T15:39:54.178Z,74.42
2017-12-24T15:42:22.427Z,75.42
2017-12-24T15:44:50.720Z,75.55
2017-12-24T15:47:19.011Z,76.47
2017-12-24T15:49:47.283Z,75.89
2017-12-24T15:52:15.522Z,75.29
2017-12-24T15:54:44.563Z,76.78
2017-12-24T15:57:13.595Z,76.68
2017-12-24T15:59:41.851Z,76.85
2017-12-24T16:02:10.087Z,76.74
2017-12-24T16:04:38.342Z,77.11
2017-12-24T16:07:07.352Z,77.43
2017-12-24T16:09:36.370Z,77.12
2017-12-24T16:12:04.654Z,76.78
2017-12-24T16:14:33.015Z,76.90
2017-12-24T16:17:01.338Z,76.09
2017-12-24T16:19:29.645Z,76.43
2017-12-24T16:21:58.670Z,75.60
2017-12-24T16:24:26.929Z,77.16
2017-12-24T16:26:55.170Z,77.38
2017-12-24T16:29:23.435Z,77.34
2017-12-24T16:31:51.695Z,77.89
2017-12-24T16:34:19.988Z,77.87
2017-12-24T16:36:48.276Z,77.85
2017-12-24T16:39:16.515Z,77.37
2017-12-24T16:41:44.851Z,77.17
2017-12-24T16:44:13.117Z,77.76
2017-12-24T16:46:42.902Z,77.03
2017-12-24T16:49:12.151Z,77.64
2017-12-24T16:51:41.182Z,78.10
2017-12-24T16:54:09.519Z,77.86
2017-12-24T16:56:37.791Z,78.21
2017-12-24T16:59:06.063Z,78.10
2017-12-24T17:01:34.348Z,77.97
2017-12-24T17:04:02.766Z,78.39
2017-12-24T17:06:31.148Z,77.82
2017-12-24T17:08:59.459Z,76.96
2017-12-24T17:11:28.484Z,77.43
2017-12-24T17:13:56.731Z,77.28
2017-12-24T17:16:24.982Z,77.50
2017-12-24T17:18:54.036Z,77.62
2017-12-24T17:21:22.287Z,76.40
2017-12-24T17:23:50.584Z,78.05
2017-12-24T17:26:18.861Z,77.41
2017-12-24T17:28:48.660Z,77.63
2017-12-24T17:31:16.903Z,78.11
2017-12-24T17:33:45.152Z,78.49
2017-12-24T17:36:14.179Z,78.65
2017-12-24T17:38:42.435Z,78.67
2017-12-24T17:41:10.695Z,78.80
2017-12-24T17:43:38.942Z,79.25
2017-12-24T17:46:07.214Z,79.27
2017-12-24T17:48:36.249Z,79.34
2017-12-24T17:51:04.535Z,79.47
2017-12-24T17:53:32.808Z,79.06
2017-12-24T17:56:01.959Z,78.99
2017-12-24T17:58:30.430Z,78.24
2017-12-24T18:00:58.671Z,77.94
2017-12-24T18:03:27.714Z,78.59
2017-12-24T18:05:55.970Z,78.69
2017-12-24T18:08:24.266Z,78.34
2017-12-24T18:10:52.578Z,77.84
2017-12-24T18:13:20.886Z,78.46
2017-12-24T18:15:49.143Z,78.78
2017-12-24T18:18:17.395Z,78.55
2017-12-24T18:20:45.642Z,79.31
2017-12-24T18:23:13.898Z,78.85
2017-12-24T18:25:42.150Z,79.31
2017-12-24T18:28:10.411Z,79.32
2017-12-24T18:30:38.663Z,79.54
2017-12-24T18:33:06.918Z,79.65
2017-12-24T18:35:35.245Z,79.40
2017-12-24T18:38:03.646Z,79.95
2017-12-24T18:40:32.890Z,79.45
2017-12-24T18:43:01.222Z,79.35
2017-12-24T18:45:29.454Z,79.67
2017-12-24T18:47:57.757Z,79.46
2017-12-24T18:50:26.000Z,79.26
2017-12-24T18:52:54.258Z,79.16
2017-12-24T18:55:22.576Z,80.23
2017-12-24T18:57:51.626Z,79.83
2017-12-24T19:00:19.892Z,79.98
2017-12-24T19:02:48.912Z,80.43
2017-12-24T19:05:17.200Z,79.81
2017-12-24T19:07:46.210Z,79.58
2017-12-24T19:10:14.459Z,79.67
2017-12-24T19:12:42.714Z,80.17
2017-12-24T19:15:10.950Z,80.13
2017-12-24T19:17:39.989Z,79.84
2017-12-24T19:20:08.239Z,79.49
2017-12-24T19:22:36.495Z,79.63
2017-12-24T19:25:04.962Z,79.70
2017-12-24T19:27:33.241Z,80.03
2017-12-24T19:30:01.595Z,80.00
2017-12-24T19:32:30.031Z,80.01
2017-12-24T19:34:59.171Z,80.08
2017-12-24T19:37:27.408Z,79.48
2017-12-24T19:39:56.434Z,79.60
2017-12-24T19:42:24.684Z,79.60
2017-12-24T19:44:52.985Z,79.36
2017-12-24T19:47:21.238Z,79.69
2017-12-24T19:49:49.592Z,79.19
2017-12-24T19:52:17.898Z,79.42
2017-12-24T19:54:46.195Z,79.07
2017-12-24T19:57:14.471Z,79.01
2017-12-24T19:59:42.765Z,79.41
2017-12-24T20:02:10.999Z,79.20
2017-12-24T20:04:39.305Z,79.06
2017-12-24T20:07:07.630Z,79.17
2017-12-24T20:09:35.985Z,79.35
2017-12-24T20:12:04.352Z,78.90
2017-12-24T20:14:32.705Z,78.63
2017-12-24T20:17:01.097Z,78.62
2017-12-24T20:19:29.394Z,78.66
2017-12-24T20:21:57.693Z,79.54
2017-12-24T20:24:25.959Z,78.86
2017-12-24T20:26:54.242Z,78.86
2017-12-24T20:29:22.558Z,79.22
2017-12-24T20:31:50.849Z,79.23
2017-12-24T20:34:19.172Z,79.55
2017-12-24T20:36:47.463Z,79.56
2017-12-24T20:39:16.536Z,79.21
2017-12-24T20:41:44.829Z,79.30
2017-12-24T20:44:13.125Z,78.97
2017-12-24T20:46:41.432Z,79.03
2017-12-24T20:49:10.750Z,78.79
2017-12-24T20:51:39.033Z,79.06
2017-12-24T20:54:07.328Z,79.54
2017-12-24T20:56:35.658Z,79.13
2017-12-24T20:59:04.060Z,79.04
2017-12-24T21:01:32.364Z,79.17
2017-12-24T21:04:00.673Z,79.44
2017-12-24T21:06:28.925Z,79.46
2017-12-24T21:08:58.035Z,79.38
2017-12-24T21:11:26.338Z,79.56
2017-12-24T21:13:54.583Z,78.99
2017-12-24T21:16:23.647Z,79.10
2017-12-24T21:18:51.996Z,79.28
2017-12-24T21:21:21.063Z,78.83
2017-12-24T21:23:50.718Z,79.02
2017-12-24T21:26:19.920Z,78.91
2017-12-24T21:28:48.964Z,78.90
2017-12-24T21:31:17.291Z,78.92
2017-12-24T21:33:45.575Z,78.62
2017-12-24T21:36:13.874Z,78.82
2017-12-24T21:38:42.188Z,79.67
2017-12-24T21:41:10.481Z,79.44
2017-12-24T21:43:39.522Z,79.78
2017-12-24T21:46:07.880Z,79.43
2017-12-24T21:48:36.348Z,79.06
2017-12-24T21:51:04.636Z,79.13
2017-12-24T21:53:32.891Z,78.93
2017-12-24T21:56:01.187Z,79.41
2017-12-24T21:58:29.444Z,79.09
2017-12-24T22:00:57.743Z,79.49
2017-12-24T22:03:26.028Z,79.77
2017-12-24T22:05:54.388Z,79.66
2017-12-24T22:08:22.676Z,79.81
2017-12-24T22:10:50.999Z,79.51
2017-12-24T22:13:19.321Z,80.17
2017-12-24T22:15:47.593Z,79.99
2017-12-24T22:18:15.902Z,79.72
2017-12-24T22:20:44.150Z,79.89
2017-12-24T22:23:12.457Z,80.02
2017-12-24T22:25:40.694Z,80.38
2017-12-24T22:28:09.011Z,79.79
2017-12-24T22:30:38.015Z,79.98
2017-12-24T22:33:07.094Z,80.27
2017-12-24T22:35:35.451Z,80.28
2017-12-24T22:38:03.746Z,80.44
2017-12-24T22:40:32.274Z,80.38
2017-12-24T22:43:01.470Z,80.44
2017-12-24T22:45:29.786Z,80.01
2017-12-24T22:47:58.089Z,79.94
2017-12-24T22:50:27.146Z,79.58
2017-12-24T22:52:55.443Z,79.77
2017-12-24T22:55:23.743Z,79.79
2017-12-24T22:57:52.020Z,80.16
2017-12-24T23:00:20.343Z,80.49
2017-12-24T23:02:49.518Z,80.13
2017-12-24T23:05:17.802Z,80.03
2017-12-24T23:07:46.043Z,79.63
2017-12-24T23:10:15.128Z,79.77
2017-12-24T23:12:43.416Z,78.98
2017-12-24T23:15:11.653Z,79.20
2017-12-24T23:17:40.256Z,79.14
2017-12-24T23:20:08.531Z,78.49
2017-12-24T23:22:36.834Z,79.58
2017-12-24T23:25:05.116Z,78.62
2017-12-24T23:27:33.946Z,79.53
2017-12-24T23:30:02.254Z,80.12
2017-12-24T23:32:30.603Z,79.68
2017-12-24T23:34:58.928Z,79.48
2017-12-24T23:37:27.224Z,79.45
2017-12-24T23:39:56.520Z,79.97
2017-12-24T23:42:24.770Z,80.55
2017-12-24T23:44:53.045Z,80.44
2017-12-24T23:47:22.126Z,80.47
2017-12-24T23:49:51.894Z,80.29
2017-12-24T23:52:20.221Z,80.47
2017-12-24T23:54:48.578Z,80.46
2017-12-24T23:57:16.839Z,80.76
2017-12-24T23:59:45.866Z,81.37
